DKH1097 ZSCN-ZSJN
Flight info
| Callsign | DKH1097 |
|---|---|
| Flight time | 1h 30m |
| Altitude | 30100 |
| Route | LAP91D LAPEN W105 XSH W50 HFE W127 SEGPI V166 ELDIV V167 DO W126 DPX A593 ABTUB ABTUB8X |
| Aircraft | A321/M-SDE3FGHIRWY/LB1 |
Departure
| Time | 2026-04-21 14:32 |
|---|---|
| Airport | Nanchang Changbei International Airport (ZSCN) |
Arrival
| Time | 2026-04-21 16:02 |
|---|---|
| Airport | Jinan Yaoqiang International Airport (ZSJN) |
| Time | Latitude | Longitude | Altitude | Speed | Heading |
|---|---|---|---|---|---|
| 2026-04-21 14:02 | 28.86463 | 115.90632 | 138 ft | 0 kts | 113° |
| 2026-04-21 14:23 | 28.86461 | 115.90637 | 141 ft | 4 kts | 113° |
| 2026-04-21 14:23 | 28.86450 | 115.90667 | 141 ft | 3 kts | 113° |
| 2026-04-21 14:23 | 28.86443 | 115.90682 | 141 ft | 4 kts | 121° |
| 2026-04-21 14:23 | 28.86406 | 115.90704 | 140 ft | 8 kts | 182° |
| 2026-04-21 14:24 | 28.86338 | 115.90676 | 140 ft | 12 kts | 202° |
| 2026-04-21 14:24 | 28.86269 | 115.90643 | 140 ft | 10 kts | 202° |
| 2026-04-21 14:24 | 28.86214 | 115.90615 | 140 ft | 8 kts | 205° |
| 2026-04-21 14:24 | 28.86171 | 115.90593 | 140 ft | 6 kts | 201° |
| 2026-04-21 14:25 | 28.86126 | 115.90573 | 140 ft | 14 kts | 202° |
| 2026-04-21 14:25 | 28.86015 | 115.90520 | 140 ft | 17 kts | 202° |
| 2026-04-21 14:25 | 28.85980 | 115.90428 | 141 ft | 12 kts | 291° |
| 2026-04-21 14:25 | 28.86008 | 115.90349 | 141 ft | 9 kts | 292° |
| 2026-04-21 14:26 | 28.86029 | 115.90293 | 141 ft | 6 kts | 284° |
| 2026-04-21 14:26 | 28.86017 | 115.90257 | 141 ft | 7 kts | 230° |
| 2026-04-21 14:26 | 28.85933 | 115.90208 | 141 ft | 16 kts | 203° |
| 2026-04-21 14:26 | 28.85834 | 115.90160 | 141 ft | 14 kts | 203° |
| 2026-04-21 14:27 | 28.85748 | 115.90119 | 142 ft | 13 kts | 202° |
| 2026-04-21 14:27 | 28.85673 | 115.90083 | 142 ft | 11 kts | 202° |
| 2026-04-21 14:27 | 28.85609 | 115.90051 | 142 ft | 9 kts | 204° |
| 2026-04-21 14:27 | 28.85550 | 115.90022 | 142 ft | 11 kts | 202° |
| 2026-04-21 14:28 | 28.85461 | 115.89979 | 142 ft | 16 kts | 204° |
| 2026-04-21 14:28 | 28.85342 | 115.89921 | 142 ft | 20 kts | 202° |
| 2026-04-21 14:28 | 28.85258 | 115.89882 | 142 ft | 19 kts | 202° |
| 2026-04-21 14:28 | 28.85104 | 115.89807 | 142 ft | 16 kts | 202° |
| 2026-04-21 14:29 | 28.85032 | 115.89741 | 142 ft | 11 kts | 258° |
| 2026-04-21 14:29 | 28.85036 | 115.89711 | 143 ft | 0 kts | 288° |
| 2026-04-21 14:30 | 28.85037 | 115.89708 | 143 ft | 1 kts | 288° |
| 2026-04-21 14:30 | 28.85042 | 115.89689 | 143 ft | 7 kts | 290° |
| 2026-04-21 14:30 | 28.85094 | 115.89612 | 145 ft | 7 kts | 334° |
| 2026-04-21 14:30 | 28.85122 | 115.89608 | 145 ft | 5 kts | 5° |
| 2026-04-21 14:31 | 28.85130 | 115.89610 | 145 ft | 0 kts | 14° |
| 2026-04-21 14:31 | 28.85178 | 115.89629 | 145 ft | 28 kts | 22° |
| 2026-04-21 14:31 | 28.85573 | 115.89821 | 147 ft | 93 kts | 23° |
| 2026-04-21 14:31 | 28.86335 | 115.90191 | 145 ft | 143 kts | 23° |
| 2026-04-21 14:32 | 28.87369 | 115.90679 | 297 ft | 170 kts | 20° |
| 2026-04-21 14:32 | 28.88400 | 115.91181 | 1084 ft | 151 kts | 24° |
| 2026-04-21 14:32 | 28.89339 | 115.91704 | 1689 ft | 151 kts | 22° |
| 2026-04-21 14:32 | 28.90338 | 115.92190 | 2021 ft | 165 kts | 20° |
| 2026-04-21 14:33 | 28.91477 | 115.92727 | 2137 ft | 189 kts | 20° |
| 2026-04-21 14:33 | 28.92760 | 115.93334 | 2297 ft | 209 kts | 21° |
| 2026-04-21 14:33 | 28.94168 | 115.94005 | 2434 ft | 229 kts | 21° |
| 2026-04-21 14:33 | 28.95724 | 115.94751 | 2585 ft | 255 kts | 21° |
| 2026-04-21 14:34 | 28.97411 | 115.95566 | 3020 ft | 270 kts | 22° |
| 2026-04-21 14:34 | 28.99166 | 115.96417 | 3620 ft | 278 kts | 21° |
| 2026-04-21 14:34 | 29.00998 | 115.97308 | 4269 ft | 285 kts | 21° |
| 2026-04-21 14:34 | 29.02819 | 115.98197 | 4892 ft | 292 kts | 20° |
| 2026-04-21 14:35 | 29.04705 | 115.99117 | 5537 ft | 297 kts | 19° |
| 2026-04-21 14:35 | 29.06619 | 116.00050 | 6194 ft | 302 kts | 19° |
| 2026-04-21 14:35 | 29.08599 | 116.01017 | 6830 ft | 307 kts | 19° |
| 2026-04-21 14:35 | 29.10544 | 116.01969 | 7476 ft | 311 kts | 19° |
| 2026-04-21 14:36 | 29.12543 | 116.02948 | 8150 ft | 314 kts | 18° |
| 2026-04-21 14:36 | 29.14557 | 116.03935 | 8794 ft | 316 kts | 18° |
| 2026-04-21 14:36 | 29.16593 | 116.04914 | 9408 ft | 318 kts | 13° |
| 2026-04-21 14:36 | 29.18728 | 116.05292 | 9965 ft | 307 kts | 348° |
| 2026-04-21 14:37 | 29.20767 | 116.04730 | 10315 ft | 304 kts | 327° |
| 2026-04-21 14:37 | 29.22467 | 116.03299 | 10437 ft | 308 kts | 305° |
| 2026-04-21 14:37 | 29.23594 | 116.01192 | 10568 ft | 317 kts | 288° |
| 2026-04-21 14:37 | 29.24473 | 115.98808 | 10721 ft | 332 kts | 288° |
| 2026-04-21 14:38 | 29.25386 | 115.96344 | 11166 ft | 338 kts | 289° |
| 2026-04-21 14:38 | 29.26312 | 115.93862 | 11582 ft | 343 kts | 289° |
| 2026-04-21 14:38 | 29.27256 | 115.91343 | 11680 ft | 344 kts | 289° |
| 2026-04-21 14:38 | 29.28204 | 115.88822 | 11688 ft | 343 kts | 289° |
| 2026-04-21 14:39 | 29.29145 | 115.86319 | 11684 ft | 343 kts | 289° |
| 2026-04-21 14:39 | 29.30086 | 115.83810 | 11684 ft | 342 kts | 289° |
| 2026-04-21 14:39 | 29.31025 | 115.81306 | 11683 ft | 343 kts | 289° |
| 2026-04-21 14:39 | 29.32004 | 115.78800 | 11778 ft | 348 kts | 294° |
| 2026-04-21 14:40 | 29.33408 | 115.76512 | 12369 ft | 356 kts | 307° |
| 2026-04-21 14:40 | 29.33426 | 115.76489 | 12380 ft | 356 kts | 307° |
| 2026-04-21 14:40 | 29.35033 | 115.74818 | 12857 ft | 365 kts | 319° |
| 2026-04-21 14:41 | 29.36548 | 115.73787 | 13224 ft | 374 kts | 329° |
| 2026-04-21 14:41 | 29.37510 | 115.73324 | 13419 ft | 378 kts | 334° |
| 2026-04-21 14:41 | 29.39998 | 115.72273 | 13919 ft | 382 kts | 334° |
| 2026-04-21 14:41 | 29.42494 | 115.71198 | 14375 ft | 385 kts | 334° |
| 2026-04-21 14:42 | 29.45004 | 115.70102 | 14814 ft | 388 kts | 333° |
| 2026-04-21 14:42 | 29.47533 | 115.68989 | 15322 ft | 390 kts | 333° |
| 2026-04-21 14:42 | 29.50070 | 115.67869 | 15794 ft | 392 kts | 333° |
| 2026-04-21 14:42 | 29.52617 | 115.66747 | 16263 ft | 394 kts | 333° |
| 2026-04-21 14:43 | 29.55186 | 115.65614 | 16723 ft | 396 kts | 333° |
| 2026-04-21 14:43 | 29.57771 | 115.64477 | 17155 ft | 399 kts | 334° |
| 2026-04-21 14:43 | 29.60370 | 115.63340 | 17596 ft | 402 kts | 334° |
| 2026-04-21 14:43 | 29.63000 | 115.62192 | 17959 ft | 406 kts | 334° |
| 2026-04-21 14:44 | 29.65655 | 115.61031 | 18317 ft | 409 kts | 334° |
| 2026-04-21 14:44 | 29.68317 | 115.59865 | 18674 ft | 411 kts | 334° |
| 2026-04-21 14:44 | 29.71002 | 115.58691 | 19049 ft | 413 kts | 334° |
| 2026-04-21 14:44 | 29.73697 | 115.57515 | 19417 ft | 415 kts | 334° |
| 2026-04-21 14:45 | 29.76400 | 115.56334 | 19786 ft | 417 kts | 334° |
| 2026-04-21 14:45 | 29.79112 | 115.55145 | 20128 ft | 419 kts | 334° |
| 2026-04-21 14:45 | 29.81843 | 115.53946 | 20469 ft | 420 kts | 334° |
| 2026-04-21 14:45 | 29.84581 | 115.52741 | 20817 ft | 422 kts | 333° |
| 2026-04-21 14:46 | 29.87321 | 115.51533 | 21167 ft | 424 kts | 333° |
| 2026-04-21 14:46 | 29.90084 | 115.50312 | 21505 ft | 425 kts | 333° |
| 2026-04-21 14:46 | 29.92853 | 115.49091 | 21845 ft | 427 kts | 333° |
| 2026-04-21 14:46 | 29.95634 | 115.47867 | 22187 ft | 429 kts | 334° |
| 2026-04-21 14:47 | 29.98427 | 115.46640 | 22522 ft | 431 kts | 334° |
| 2026-04-21 14:47 | 30.01231 | 115.45407 | 22867 ft | 432 kts | 334° |
| 2026-04-21 14:47 | 30.04047 | 115.44169 | 23176 ft | 434 kts | 333° |
| 2026-04-21 14:47 | 30.06879 | 115.42923 | 23458 ft | 437 kts | 333° |
| 2026-04-21 14:48 | 30.09721 | 115.41668 | 23709 ft | 439 kts | 333° |
| 2026-04-21 14:48 | 30.12577 | 115.40403 | 23963 ft | 440 kts | 333° |
| 2026-04-21 14:48 | 30.15444 | 115.39131 | 24220 ft | 442 kts | 333° |
| 2026-04-21 14:48 | 30.18317 | 115.37855 | 24476 ft | 443 kts | 333° |
| 2026-04-21 14:49 | 30.21205 | 115.36573 | 24734 ft | 445 kts | 333° |
| 2026-04-21 14:49 | 30.24103 | 115.35287 | 24987 ft | 447 kts | 333° |
| 2026-04-21 14:49 | 30.27007 | 115.33998 | 25239 ft | 449 kts | 333° |
| 2026-04-21 14:49 | 30.29929 | 115.32700 | 25511 ft | 450 kts | 333° |
| 2026-04-21 14:50 | 30.31867 | 115.31840 | 25690 ft | 452 kts | 333° |
| 2026-04-21 14:50 | 30.35849 | 115.30183 | 25982 ft | 460 kts | 340° |
| 2026-04-21 14:50 | 30.39063 | 115.29701 | 26219 ft | 474 kts | 355° |
| 2026-04-21 14:50 | 30.42367 | 115.30175 | 26452 ft | 487 kts | 11° |
| 2026-04-21 14:51 | 30.45539 | 115.31662 | 26668 ft | 498 kts | 27° |
| 2026-04-21 14:51 | 30.48313 | 115.34093 | 26876 ft | 506 kts | 43° |
| 2026-04-21 14:51 | 30.50526 | 115.37145 | 27110 ft | 510 kts | 50° |
| 2026-04-21 14:51 | 30.52708 | 115.40405 | 27338 ft | 512 kts | 51° |
| 2026-04-21 14:52 | 30.54882 | 115.43683 | 27589 ft | 514 kts | 51° |
| 2026-04-21 14:52 | 30.57066 | 115.46991 | 27782 ft | 517 kts | 51° |
| 2026-04-21 14:52 | 30.59255 | 115.50310 | 27991 ft | 519 kts | 51° |
| 2026-04-21 14:52 | 30.61457 | 115.53636 | 28237 ft | 521 kts | 51° |
| 2026-04-21 14:53 | 30.63668 | 115.56968 | 28464 ft | 522 kts | 51° |
| 2026-04-21 14:53 | 30.65894 | 115.60318 | 28721 ft | 523 kts | 51° |
| 2026-04-21 14:53 | 30.68110 | 115.63661 | 29058 ft | 522 kts | 51° |
| 2026-04-21 14:53 | 30.70328 | 115.67010 | 29301 ft | 523 kts | 51° |
| 2026-04-21 14:54 | 30.72546 | 115.70363 | 29562 ft | 524 kts | 51° |
| 2026-04-21 14:54 | 30.74769 | 115.73729 | 29879 ft | 524 kts | 51° |
| 2026-04-21 14:54 | 30.76973 | 115.77074 | 29977 ft | 517 kts | 51° |
| 2026-04-21 14:55 | 30.81293 | 115.83640 | 29990 ft | 508 kts | 51° |
| 2026-04-21 14:55 | 30.85598 | 115.90160 | 29998 ft | 507 kts | 51° |
| 2026-04-21 14:56 | 30.89914 | 115.96647 | 29996 ft | 507 kts | 50° |
| 2026-04-21 14:56 | 30.94247 | 116.03125 | 30016 ft | 505 kts | 50° |
| 2026-04-21 14:57 | 30.98536 | 116.09558 | 30000 ft | 501 kts | 50° |
| 2026-04-21 14:57 | 31.02798 | 116.15987 | 30002 ft | 501 kts | 50° |
| 2026-04-21 14:58 | 31.07054 | 116.22425 | 29993 ft | 500 kts | 50° |
| 2026-04-21 14:58 | 31.11305 | 116.28858 | 29988 ft | 501 kts | 50° |
| 2026-04-21 14:59 | 31.15560 | 116.35301 | 30003 ft | 502 kts | 50° |
| 2026-04-21 14:59 | 31.19826 | 116.41760 | 29991 ft | 501 kts | 50° |
| 2026-04-21 15:00 | 31.24081 | 116.48223 | 30006 ft | 502 kts | 50° |
| 2026-04-21 15:00 | 31.28341 | 116.54700 | 30005 ft | 503 kts | 50° |
| 2026-04-21 15:01 | 31.32597 | 116.61191 | 30022 ft | 503 kts | 51° |
| 2026-04-21 15:01 | 31.36852 | 116.67695 | 30024 ft | 503 kts | 51° |
| 2026-04-21 15:02 | 31.41106 | 116.74193 | 30027 ft | 503 kts | 51° |
| 2026-04-21 15:02 | 31.45359 | 116.80697 | 30031 ft | 503 kts | 51° |
| 2026-04-21 15:03 | 31.49613 | 116.87217 | 30040 ft | 503 kts | 51° |
| 2026-04-21 15:03 | 31.53895 | 116.93690 | 30037 ft | 503 kts | 50° |
| 2026-04-21 15:04 | 31.58202 | 117.00161 | 30024 ft | 503 kts | 50° |
| 2026-04-21 15:04 | 31.62487 | 117.06644 | 30024 ft | 503 kts | 51° |
| 2026-04-21 15:05 | 31.66550 | 117.12949 | 30023 ft | 503 kts | 51° |
| 2026-04-21 15:05 | 31.72911 | 117.22714 | 30019 ft | 501 kts | 43° |
| 2026-04-21 15:06 | 31.75546 | 117.25363 | 30015 ft | 495 kts | 31° |
| 2026-04-21 15:06 | 31.78509 | 117.27381 | 30013 ft | 489 kts | 20° |
| 2026-04-21 15:06 | 31.84934 | 117.29510 | 30012 ft | 475 kts | 0° |
| 2026-04-21 15:07 | 31.91462 | 117.29438 | 30034 ft | 468 kts | 352° |
| 2026-04-21 15:07 | 31.96864 | 117.29149 | 30040 ft | 468 kts | 352° |
| 2026-04-21 15:08 | 32.03365 | 117.28836 | 30037 ft | 468 kts | 352° |
| 2026-04-21 15:08 | 32.09874 | 117.28579 | 30036 ft | 468 kts | 353° |
| 2026-04-21 15:09 | 32.16380 | 117.28310 | 30058 ft | 468 kts | 352° |
| 2026-04-21 15:09 | 32.22780 | 117.28025 | 30053 ft | 467 kts | 352° |
| 2026-04-21 15:10 | 32.29282 | 117.27734 | 30059 ft | 467 kts | 352° |
| 2026-04-21 15:10 | 32.35783 | 117.27449 | 30060 ft | 468 kts | 352° |
| 2026-04-21 15:11 | 32.42276 | 117.27164 | 30069 ft | 468 kts | 352° |
| 2026-04-21 15:11 | 32.48806 | 117.27059 | 30065 ft | 474 kts | 0° |
| 2026-04-21 15:12 | 32.52070 | 117.27772 | 30068 ft | 482 kts | 11° |
| 2026-04-21 15:12 | 32.55224 | 117.29195 | 30061 ft | 488 kts | 22° |
| 2026-04-21 15:12 | 32.58139 | 117.31293 | 30066 ft | 494 kts | 34° |
| 2026-04-21 15:12 | 32.60828 | 117.33852 | 30075 ft | 495 kts | 35° |
| 2026-04-21 15:13 | 32.66172 | 117.38985 | 30085 ft | 495 kts | 35° |
| 2026-04-21 15:13 | 32.71538 | 117.44122 | 30081 ft | 495 kts | 35° |
| 2026-04-21 15:14 | 32.76900 | 117.49269 | 30081 ft | 495 kts | 35° |
| 2026-04-21 15:14 | 32.82258 | 117.54428 | 30084 ft | 496 kts | 35° |
| 2026-04-21 15:15 | 32.87614 | 117.59605 | 30073 ft | 496 kts | 35° |
| 2026-04-21 15:15 | 32.92963 | 117.64784 | 30075 ft | 495 kts | 34° |
| 2026-04-21 15:16 | 32.98840 | 117.68789 | 30069 ft | 482 kts | 14° |
| 2026-04-21 15:16 | 33.05274 | 117.70471 | 30066 ft | 469 kts | 358° |
| 2026-04-21 15:17 | 33.11788 | 117.71140 | 30059 ft | 470 kts | 359° |
| 2026-04-21 15:17 | 33.18276 | 117.71820 | 30063 ft | 471 kts | 359° |
| 2026-04-21 15:18 | 33.24851 | 117.72502 | 30060 ft | 472 kts | 359° |
| 2026-04-21 15:18 | 33.31402 | 117.73183 | 30067 ft | 472 kts | 359° |
| 2026-04-21 15:19 | 33.37949 | 117.73862 | 30078 ft | 472 kts | 359° |
| 2026-04-21 15:19 | 33.44498 | 117.74545 | 30079 ft | 473 kts | 359° |
| 2026-04-21 15:20 | 33.51050 | 117.75227 | 30109 ft | 473 kts | 359° |
| 2026-04-21 15:20 | 33.57558 | 117.75908 | 30106 ft | 472 kts | 359° |
| 2026-04-21 15:21 | 33.64103 | 117.76592 | 30099 ft | 472 kts | 359° |
| 2026-04-21 15:21 | 33.70491 | 117.77258 | 30108 ft | 472 kts | 359° |
| 2026-04-21 15:22 | 33.77041 | 117.77947 | 30105 ft | 473 kts | 359° |
| 2026-04-21 15:22 | 33.83594 | 117.78648 | 30108 ft | 473 kts | 359° |
| 2026-04-21 15:23 | 33.90147 | 117.79339 | 30105 ft | 473 kts | 359° |
| 2026-04-21 15:23 | 33.96705 | 117.80024 | 30111 ft | 474 kts | 359° |
| 2026-04-21 15:24 | 34.03281 | 117.80790 | 30101 ft | 478 kts | 4° |
| 2026-04-21 15:24 | 34.09637 | 117.83450 | 30110 ft | 493 kts | 25° |
| 2026-04-21 15:25 | 34.15259 | 117.88284 | 30124 ft | 498 kts | 33° |
| 2026-04-21 15:25 | 34.20792 | 117.93330 | 30123 ft | 496 kts | 29° |
| 2026-04-21 15:26 | 34.23787 | 117.95336 | 30118 ft | 489 kts | 18° |
| 2026-04-21 15:26 | 34.26979 | 117.96664 | 30119 ft | 481 kts | 8° |
| 2026-04-21 15:26 | 34.33497 | 117.97309 | 30142 ft | 464 kts | 348° |
| 2026-04-21 15:27 | 34.39679 | 117.95618 | 30128 ft | 453 kts | 336° |
| 2026-04-21 15:27 | 34.45735 | 117.93447 | 30123 ft | 454 kts | 336° |
| 2026-04-21 15:28 | 34.51795 | 117.91279 | 30119 ft | 454 kts | 336° |
| 2026-04-21 15:28 | 34.57862 | 117.89112 | 30122 ft | 455 kts | 336° |
| 2026-04-21 15:29 | 34.63933 | 117.86935 | 30137 ft | 455 kts | 336° |
| 2026-04-21 15:29 | 34.70013 | 117.84750 | 30074 ft | 456 kts | 336° |
| 2026-04-21 15:30 | 34.73052 | 117.83656 | 29784 ft | 457 kts | 336° |
| 2026-04-21 15:30 | 34.76106 | 117.82555 | 29521 ft | 457 kts | 336° |
| 2026-04-21 15:30 | 34.79160 | 117.81452 | 29254 ft | 458 kts | 337° |
| 2026-04-21 15:30 | 34.82212 | 117.80350 | 28991 ft | 458 kts | 337° |
| 2026-04-21 15:31 | 34.85265 | 117.79243 | 28763 ft | 458 kts | 336° |
| 2026-04-21 15:31 | 34.88321 | 117.78126 | 28505 ft | 458 kts | 336° |
| 2026-04-21 15:31 | 34.91372 | 117.77009 | 28248 ft | 458 kts | 336° |
| 2026-04-21 15:31 | 34.94421 | 117.75892 | 27995 ft | 457 kts | 336° |
| 2026-04-21 15:32 | 34.97462 | 117.74776 | 27742 ft | 455 kts | 336° |
| 2026-04-21 15:32 | 35.00487 | 117.73664 | 27489 ft | 454 kts | 336° |
| 2026-04-21 15:32 | 35.03510 | 117.72554 | 27244 ft | 453 kts | 336° |
| 2026-04-21 15:32 | 35.06521 | 117.71448 | 26991 ft | 451 kts | 336° |
| 2026-04-21 15:33 | 35.09519 | 117.70350 | 26763 ft | 449 kts | 336° |
| 2026-04-21 15:33 | 35.12510 | 117.69258 | 26526 ft | 448 kts | 336° |
| 2026-04-21 15:33 | 35.15488 | 117.68169 | 26284 ft | 446 kts | 336° |
| 2026-04-21 15:33 | 35.18457 | 117.67080 | 26040 ft | 445 kts | 336° |
| 2026-04-21 15:34 | 35.21416 | 117.65992 | 25804 ft | 443 kts | 336° |
| 2026-04-21 15:34 | 35.24360 | 117.64906 | 25578 ft | 441 kts | 336° |
| 2026-04-21 15:34 | 35.27294 | 117.63826 | 25342 ft | 440 kts | 336° |
| 2026-04-21 15:34 | 35.30224 | 117.62751 | 25103 ft | 439 kts | 336° |
| 2026-04-21 15:35 | 35.33144 | 117.61676 | 24880 ft | 437 kts | 336° |
| 2026-04-21 15:35 | 35.36041 | 117.60605 | 24668 ft | 434 kts | 336° |
| 2026-04-21 15:35 | 35.38927 | 117.59539 | 24442 ft | 431 kts | 337° |
| 2026-04-21 15:35 | 35.41789 | 117.58480 | 24221 ft | 429 kts | 337° |
| 2026-04-21 15:36 | 35.44639 | 117.57424 | 23999 ft | 428 kts | 337° |
| 2026-04-21 15:36 | 35.47488 | 117.56369 | 23777 ft | 427 kts | 337° |
| 2026-04-21 15:36 | 35.50329 | 117.55319 | 23541 ft | 426 kts | 337° |
| 2026-04-21 15:36 | 35.53153 | 117.54276 | 23279 ft | 424 kts | 337° |
| 2026-04-21 15:37 | 35.55977 | 117.53234 | 23016 ft | 422 kts | 337° |
| 2026-04-21 15:37 | 35.58777 | 117.52199 | 22754 ft | 420 kts | 337° |
| 2026-04-21 15:37 | 35.61579 | 117.51161 | 22494 ft | 418 kts | 337° |
| 2026-04-21 15:37 | 35.64365 | 117.50126 | 22237 ft | 416 kts | 337° |
| 2026-04-21 15:38 | 35.67133 | 117.49095 | 21982 ft | 415 kts | 337° |
| 2026-04-21 15:38 | 35.69887 | 117.48065 | 21729 ft | 413 kts | 337° |
| 2026-04-21 15:38 | 35.72630 | 117.47039 | 21487 ft | 412 kts | 337° |
| 2026-04-21 15:38 | 35.75362 | 117.46019 | 21250 ft | 409 kts | 337° |
| 2026-04-21 15:39 | 35.78078 | 117.45007 | 20992 ft | 407 kts | 338° |
| 2026-04-21 15:39 | 35.80778 | 117.44004 | 20668 ft | 403 kts | 338° |
| 2026-04-21 15:39 | 35.83449 | 117.43011 | 20198 ft | 399 kts | 338° |
| 2026-04-21 15:39 | 35.86090 | 117.42025 | 19746 ft | 394 kts | 338° |
| 2026-04-21 15:40 | 35.88705 | 117.41044 | 19269 ft | 391 kts | 338° |
| 2026-04-21 15:40 | 35.91295 | 117.40071 | 18795 ft | 388 kts | 338° |
| 2026-04-21 15:40 | 35.93867 | 117.39107 | 18323 ft | 385 kts | 338° |
| 2026-04-21 15:40 | 35.96429 | 117.38147 | 17783 ft | 383 kts | 338° |
| 2026-04-21 15:41 | 35.98986 | 117.37275 | 17249 ft | 383 kts | 344° |
| 2026-04-21 15:41 | 36.01628 | 117.36819 | 16741 ft | 384 kts | 352° |
| 2026-04-21 15:41 | 36.04302 | 117.36769 | 16225 ft | 384 kts | 356° |
| 2026-04-21 15:41 | 36.06960 | 117.36780 | 15771 ft | 381 kts | 357° |
| 2026-04-21 15:42 | 36.09589 | 117.36788 | 15352 ft | 376 kts | 357° |
| 2026-04-21 15:42 | 36.12197 | 117.36793 | 14902 ft | 373 kts | 358° |
| 2026-04-21 15:42 | 36.14778 | 117.36796 | 14452 ft | 370 kts | 358° |
| 2026-04-21 15:42 | 36.17345 | 117.36796 | 14009 ft | 367 kts | 358° |
| 2026-04-21 15:43 | 36.19892 | 117.36794 | 13527 ft | 365 kts | 359° |
| 2026-04-21 15:43 | 36.22421 | 117.36792 | 13037 ft | 362 kts | 359° |
| 2026-04-21 15:43 | 36.24925 | 117.36790 | 12547 ft | 359 kts | 359° |
| 2026-04-21 15:43 | 36.27411 | 117.36790 | 12062 ft | 356 kts | 359° |
| 2026-04-21 15:44 | 36.29874 | 117.36794 | 11619 ft | 352 kts | 1° |
| 2026-04-21 15:44 | 36.32301 | 117.36799 | 11197 ft | 348 kts | 1° |
| 2026-04-21 15:44 | 36.34711 | 117.36801 | 10749 ft | 344 kts | 2° |
| 2026-04-21 15:44 | 36.37096 | 117.36804 | 10305 ft | 341 kts | 2° |
| 2026-04-21 15:45 | 36.39420 | 117.36803 | 9961 ft | 335 kts | 2° |
| 2026-04-21 15:45 | 36.41734 | 117.36802 | 9830 ft | 321 kts | 2° |
| 2026-04-21 15:45 | 36.43929 | 117.36802 | 9693 ft | 309 kts | 2° |
| 2026-04-21 15:45 | 36.46034 | 117.36801 | 9562 ft | 298 kts | 2° |
| 2026-04-21 15:46 | 36.48073 | 117.36802 | 9423 ft | 288 kts | 2° |
| 2026-04-21 15:46 | 36.50056 | 117.36804 | 9157 ft | 283 kts | 2° |
| 2026-04-21 15:46 | 36.51998 | 117.36807 | 8792 ft | 282 kts | 3° |
| 2026-04-21 15:46 | 36.53955 | 117.36809 | 8441 ft | 281 kts | 3° |
| 2026-04-21 15:47 | 36.55904 | 117.36811 | 8296 ft | 281 kts | 3° |
| 2026-04-21 15:47 | 36.57860 | 117.36817 | 8177 ft | 282 kts | 3° |
| 2026-04-21 15:47 | 36.59822 | 117.36823 | 8047 ft | 282 kts | 3° |
| 2026-04-21 15:47 | 36.61784 | 117.36828 | 7921 ft | 282 kts | 3° |
| 2026-04-21 15:48 | 36.63745 | 117.36831 | 7791 ft | 282 kts | 3° |
| 2026-04-21 15:48 | 36.65707 | 117.36833 | 7668 ft | 282 kts | 2° |
| 2026-04-21 15:48 | 36.67671 | 117.36834 | 7546 ft | 282 kts | 3° |
| 2026-04-21 15:48 | 36.69633 | 117.36839 | 7420 ft | 282 kts | 3° |
| 2026-04-21 15:49 | 36.71590 | 117.36843 | 7297 ft | 282 kts | 2° |
| 2026-04-21 15:49 | 36.73553 | 117.36846 | 7162 ft | 282 kts | 2° |
| 2026-04-21 15:49 | 36.75512 | 117.36848 | 7049 ft | 282 kts | 2° |
| 2026-04-21 15:49 | 36.77472 | 117.36852 | 6921 ft | 281 kts | 2° |
| 2026-04-21 15:50 | 36.79428 | 117.36856 | 6838 ft | 280 kts | 2° |
| 2026-04-21 15:50 | 36.81381 | 117.36860 | 6924 ft | 281 kts | 2° |
| 2026-04-21 15:50 | 36.83342 | 117.36865 | 6855 ft | 282 kts | 2° |
| 2026-04-21 15:50 | 36.85301 | 117.36870 | 6736 ft | 281 kts | 2° |
| 2026-04-21 15:51 | 36.87257 | 117.36874 | 6616 ft | 281 kts | 2° |
| 2026-04-21 15:51 | 36.88575 | 117.36877 | 6534 ft | 280 kts | 2° |
| 2026-04-21 15:51 | 36.91155 | 117.36881 | 6367 ft | 280 kts | 2° |
| 2026-04-21 15:51 | 36.92446 | 117.36881 | 6280 ft | 279 kts | 1° |
| 2026-04-21 15:52 | 36.94413 | 117.36882 | 6144 ft | 279 kts | 1° |
| 2026-04-21 15:52 | 36.96323 | 117.36884 | 6017 ft | 278 kts | 1° |
| 2026-04-21 15:52 | 36.98251 | 117.36886 | 5889 ft | 277 kts | 1° |
| 2026-04-21 15:52 | 37.00200 | 117.36889 | 5608 ft | 275 kts | 1° |
| 2026-04-21 15:53 | 37.02113 | 117.36895 | 5230 ft | 275 kts | 0° |
| 2026-04-21 15:53 | 37.04003 | 117.36899 | 4877 ft | 274 kts | 360° |
| 2026-04-21 15:53 | 37.05910 | 117.36900 | 4694 ft | 265 kts | 359° |
| 2026-04-21 15:53 | 37.07693 | 117.36903 | 4566 ft | 255 kts | 359° |
| 2026-04-21 15:54 | 37.09429 | 117.36806 | 4416 ft | 245 kts | 345° |
| 2026-04-21 15:54 | 37.10902 | 117.35865 | 4150 ft | 238 kts | 314° |
| 2026-04-21 15:54 | 37.11748 | 117.34181 | 3950 ft | 223 kts | 285° |
| 2026-04-21 15:54 | 37.11923 | 117.32240 | 3309 ft | 231 kts | 267° |
| 2026-04-21 15:55 | 37.11915 | 117.30182 | 2605 ft | 238 kts | 267° |
| 2026-04-21 15:55 | 37.11909 | 117.28134 | 2097 ft | 228 kts | 267° |
| 2026-04-21 15:55 | 37.11864 | 117.26287 | 2024 ft | 193 kts | 258° |
| 2026-04-21 15:55 | 37.11509 | 117.24782 | 2021 ft | 173 kts | 242° |
| 2026-04-21 15:56 | 37.10886 | 117.23548 | 2022 ft | 164 kts | 227° |
| 2026-04-21 15:56 | 37.10074 | 117.22608 | 2033 ft | 155 kts | 213° |
| 2026-04-21 15:56 | 37.09165 | 117.21989 | 2042 ft | 145 kts | 201° |
| 2026-04-21 15:56 | 37.08210 | 117.21663 | 2033 ft | 142 kts | 188° |
| 2026-04-21 15:57 | 37.07230 | 117.21603 | 2031 ft | 141 kts | 181° |
| 2026-04-21 15:57 | 37.06254 | 117.21602 | 2031 ft | 140 kts | 181° |
| 2026-04-21 15:57 | 37.05280 | 117.21601 | 2031 ft | 140 kts | 180° |
| 2026-04-21 15:57 | 37.04304 | 117.21601 | 2031 ft | 140 kts | 180° |
| 2026-04-21 15:58 | 37.03332 | 117.21601 | 2031 ft | 140 kts | 181° |
| 2026-04-21 15:58 | 37.02354 | 117.21601 | 2031 ft | 140 kts | 181° |
| 2026-04-21 15:58 | 37.01382 | 117.21601 | 2036 ft | 140 kts | 181° |
| 2026-04-21 15:58 | 37.00405 | 117.21601 | 2036 ft | 140 kts | 181° |
| 2026-04-21 15:59 | 36.99452 | 117.21601 | 2037 ft | 140 kts | 181° |
| 2026-04-21 15:59 | 36.98461 | 117.21601 | 2037 ft | 140 kts | 181° |
| 2026-04-21 15:59 | 36.97518 | 117.21601 | 2005 ft | 141 kts | 180° |
| 2026-04-21 15:59 | 36.96526 | 117.21601 | 1878 ft | 142 kts | 180° |
| 2026-04-21 16:00 | 36.95537 | 117.21601 | 1715 ft | 142 kts | 180° |
| 2026-04-21 16:00 | 36.94549 | 117.21601 | 1525 ft | 142 kts | 180° |
| 2026-04-21 16:00 | 36.93562 | 117.21601 | 1337 ft | 142 kts | 181° |
| 2026-04-21 16:00 | 36.92571 | 117.21601 | 1154 ft | 142 kts | 181° |
| 2026-04-21 16:01 | 36.91657 | 117.21601 | 971 ft | 141 kts | 181° |
| 2026-04-21 16:01 | 36.90676 | 117.21601 | 777 ft | 141 kts | 181° |
| 2026-04-21 16:01 | 36.89699 | 117.21601 | 585 ft | 141 kts | 181° |
| 2026-04-21 16:01 | 36.88720 | 117.21599 | 414 ft | 140 kts | 181° |
| 2026-04-21 16:02 | 36.87745 | 117.21597 | 238 ft | 139 kts | 181° |
| 2026-04-21 16:02 | 36.86781 | 117.21597 | 107 ft | 138 kts | 180° |
| 2026-04-21 16:02 | 36.85923 | 117.21592 | 88 ft | 88 kts | 180° |
| 2026-04-21 16:02 | 36.85565 | 117.21563 | 88 ft | 30 kts | 202° |
| 2026-04-21 16:03 | 36.85395 | 117.21452 | 83 ft | 16 kts | 211° |
| 2026-04-21 16:03 | 36.85310 | 117.21389 | 85 ft | 14 kts | 207° |
| 2026-04-21 16:03 | 36.85222 | 117.21370 | 82 ft | 10 kts | 180° |
| 2026-04-21 16:03 | 36.85158 | 117.21362 | 82 ft | 9 kts | 205° |
| 2026-04-21 16:04 | 36.85133 | 117.21300 | 85 ft | 8 kts | 238° |
| 2026-04-21 16:04 | 36.85093 | 117.21271 | 82 ft | 7 kts | 182° |
| 2026-04-21 16:04 | 36.85049 | 117.21270 | 83 ft | 6 kts | 180° |
| 2026-04-21 16:04 | 36.85009 | 117.21269 | 83 ft | 5 kts | 180° |
| 2026-04-21 16:05 | 36.84974 | 117.21269 | 85 ft | 5 kts | 180° |
| 2026-04-21 16:05 | 36.84944 | 117.21269 | 82 ft | 4 kts | 179° |
| 2026-04-21 16:05 | 36.84915 | 117.21270 | 85 ft | 4 kts | 178° |
| 2026-04-21 16:05 | 36.84889 | 117.21269 | 83 ft | 4 kts | 191° |
| 2026-04-21 16:06 | 36.84877 | 117.21232 | 85 ft | 5 kts | 298° |
| 2026-04-21 16:06 | 36.84887 | 117.21199 | 83 ft | 4 kts | 288° |
| 2026-04-21 16:06 | 36.84901 | 117.21162 | 81 ft | 4 kts | 295° |
| 2026-04-21 16:06 | 36.84913 | 117.21131 | 82 ft | 3 kts | 295° |
| 2026-04-21 16:07 | 36.84921 | 117.21108 | 82 ft | 3 kts | 295° |
| 2026-04-21 16:07 | 36.84929 | 117.21089 | 84 ft | 2 kts | 295° |
| 2026-04-21 16:07 | 36.84934 | 117.21077 | 83 ft | 1 kts | 301° |
| 2026-04-21 16:07 | 36.84957 | 117.21069 | 82 ft | 5 kts | 1° |
| 2026-04-21 16:08 | 36.84988 | 117.21107 | 82 ft | 2 kts | 84° |
| 2026-04-21 16:08 | 36.84989 | 117.21124 | 80 ft | 2 kts | 83° |
| 2026-04-21 16:08 | 36.84989 | 117.21139 | 84 ft | 1 kts | 91° |
| 2026-04-21 16:09 | 36.84989 | 117.21152 | 80 ft | 0 kts | 91° |
| 2026-04-21 16:09 | 36.84989 | 117.21151 | 80 ft | 0 kts | 91° |